createdAt,value
2023-02-27T08:47:07.846Z,61.10
2023-02-27T08:51:11.030Z,60.65
2023-02-27T09:07:25.731Z,59.17
2023-02-27T14:41:51.505Z,60.00
2023-02-27T14:45:56.239Z,59.80
2023-02-27T14:49:59.884Z,59.80
2023-02-27T14:54:06.003Z,60.30
2023-02-27T14:58:17.733Z,60.67
2023-02-27T15:02:26.156Z,60.90
2023-02-27T15:06:35.926Z,61.37
2023-02-27T15:10:43.290Z,61.17
2023-02-27T15:14:50.845Z,60.95
2023-02-27T15:18:56.969Z,61.30
2023-02-27T15:23:00.313Z,60.70
2023-02-27T15:27:07.418Z,60.40
2023-02-27T15:31:18.739Z,60.15
2023-02-27T15:35:27.020Z,59.35
2023-02-27T15:39:33.762Z,60.90
2023-02-27T15:43:37.400Z,60.50
2023-02-27T15:47:42.937Z,60.70
2023-02-27T15:52:01.189Z,60.85
2023-02-27T15:56:08.903Z,60.70
2023-02-27T16:00:14.181Z,60.63
2023-02-27T16:04:23.618Z,62.43
2023-02-27T16:08:31.839Z,61.47
2023-02-27T16:12:37.952Z,60.80
2023-02-27T16:16:41.226Z,60.95
2023-02-27T16:20:47.734Z,60.85
2023-02-27T16:24:54.709Z,59.90
2023-02-27T16:29:00.842Z,59.70
2023-02-27T16:33:04.067Z,60.10
2023-02-27T16:37:08.207Z,60.93
2023-02-27T16:41:15.971Z,60.70
2023-02-27T16:45:21.868Z,61.60
2023-02-27T16:49:28.088Z,61.50
2023-02-27T16:53:31.055Z,60.90
2023-02-27T16:57:35.539Z,60.93
2023-02-27T17:01:39.588Z,61.10
2023-02-27T17:05:42.611Z,60.80
2023-02-27T17:09:46.914Z,61.00
2023-02-27T17:13:52.336Z,61.63
2023-02-27T17:17:55.413Z,61.00
2023-02-27T17:21:59.422Z,60.85
2023-02-27T17:26:02.419Z,61.20
2023-02-27T17:30:08.315Z,61.17
2023-02-27T17:34:11.731Z,61.50
2023-02-27T17:38:14.686Z,59.65
2023-02-27T17:42:19.390Z,57.60
2023-02-27T17:46:24.647Z,62.63
2023-02-27T17:50:27.776Z,59.60
2023-02-27T17:54:33.378Z,54.50
2023-02-27T17:58:36.417Z,54.05
2023-02-27T18:02:40.902Z,54.17
2023-02-27T18:06:44.186Z,54.80
2023-02-27T18:10:50.819Z,54.13
2023-02-27T18:15:02.281Z,53.10
2023-02-27T18:19:07.277Z,55.17
2023-02-27T18:23:10.458Z,55.00
2023-02-27T18:27:13.506Z,55.10
2023-02-27T18:31:20.923Z,55.70
2023-02-27T18:35:26.180Z,55.45
2023-02-27T18:39:29.209Z,55.10
2023-02-27T18:43:33.249Z,54.72
2023-02-27T18:47:36.497Z,55.10
2023-02-27T18:51:40.872Z,55.05
2023-02-27T18:55:44.025Z,55.03
2023-02-27T18:59:47.555Z,54.90
2023-02-27T19:03:51.047Z,55.33
2023-02-27T19:07:55.362Z,54.50
2023-02-27T19:12:00.056Z,54.80
2023-02-27T19:16:05.755Z,58.03
2023-02-27T19:20:14.325Z,60.78
2023-02-27T19:24:18.709Z,61.70
2023-02-27T19:28:21.669Z,62.70
2023-02-27T19:32:24.716Z,62.90
2023-02-27T19:36:29.615Z,62.28
2023-02-27T19:40:34.099Z,62.90
2023-02-27T19:44:38.587Z,62.50
2023-02-27T19:48:42.901Z,62.95
2023-02-27T19:52:46.072Z,62.53
2023-02-27T19:56:52.726Z,62.80
2023-02-27T20:00:56.274Z,63.90
2023-02-27T20:05:00.709Z,63.40
2023-02-27T20:09:04.884Z,62.60
2023-02-27T20:13:12.258Z,62.78
2023-02-27T20:17:16.428Z,62.60
2023-02-27T20:21:22.800Z,62.70
2023-02-27T20:53:57.179Z,63.75
2023-02-27T23:04:06.144Z,62.30
2023-02-27T23:08:09.280Z,61.80
2023-02-27T23:12:19.649Z,63.80
2023-02-27T23:16:23.423Z,62.90
2023-02-27T23:20:26.534Z,62.05
2023-02-27T23:24:29.506Z,62.70
2023-02-27T23:28:35.811Z,61.70
2023-02-27T23:32:43.525Z,61.40
